Mulgrave, Canada
Current Conditions -  °F | °C
As of 9:00 PM on Tuesday 25 Nov 2014 (Local Time) from CYPD Reporting Station
Broken Clouds Broken Clouds  
Wind Chill: 57°   Ceiling: 20000
Heat Index: 57°   Visibility: 9mi
Dew Point: 46°   Wind: 13mph
Humidity: 67%   Direction: 240°WSW
Pressure: 29.82"   Gusts: 24mph
Location:  45.62°N, 61.4°W
Report Text: CYPD 260100Z AUTO 24011G21KT 9SM BKN200 BKN220 14/08 A2982 RMK PRESRR SLP100 DENSITY ALT 400FT
Loading
Personal Weather Stations






























Interactive Weather Map New forecast layout! Learn more

10-Day Weather Forecast

Advertisements
Track Severe Weather on mobile